createdAt,value
2019-01-08T00:04:42.489Z,4.20
2019-01-08T00:09:44.038Z,4.57
2019-01-08T00:14:45.547Z,5.03
2019-01-08T00:19:47.137Z,5.33
2019-01-08T00:24:48.661Z,5.30
2019-01-08T00:29:50.209Z,5.40
2019-01-08T00:34:51.738Z,4.77
2019-01-08T00:39:53.289Z,5.60
2019-01-08T00:44:54.822Z,4.53
2019-01-08T00:49:56.776Z,5.20
2019-01-08T00:54:58.339Z,4.73
2019-01-08T01:00:00.349Z,5.43
2019-01-08T01:05:01.910Z,5.27
2019-01-08T01:10:04.194Z,4.87
2019-01-08T01:15:06.149Z,5.27
2019-01-08T01:20:07.724Z,4.73
2019-01-08T01:25:09.324Z,5.17
2019-01-08T01:30:10.873Z,3.57
2019-01-08T01:35:12.405Z,3.67
2019-01-08T01:40:14.263Z,5.10
2019-01-08T01:45:16.647Z,5.30
2019-01-08T01:50:18.200Z,4.43
2019-01-08T01:55:19.756Z,4.40
2019-01-08T02:00:21.327Z,4.87
2019-01-08T02:05:22.991Z,5.03
2019-01-08T02:10:24.818Z,3.87
2019-01-08T02:15:27.102Z,4.50
2019-01-08T02:20:28.633Z,5.10
2019-01-08T02:25:30.215Z,5.03
2019-01-08T02:30:32.213Z,5.73
2019-01-08T02:35:33.708Z,5.43
2019-01-08T02:40:35.309Z,4.27
2019-01-08T02:45:36.949Z,5.07
2019-01-08T02:50:38.491Z,5.13
2019-01-08T02:55:39.990Z,4.87
2019-01-08T03:00:41.582Z,5.40
2019-01-08T03:05:43.186Z,5.23
2019-01-08T03:10:45.079Z,5.60
2019-01-08T03:15:46.631Z,5.47
2019-01-08T03:20:48.167Z,4.87
2019-01-08T03:25:49.719Z,4.37
2019-01-08T03:30:51.366Z,4.93
2019-01-08T03:35:53.232Z,4.87
2019-01-08T03:40:54.778Z,4.90
2019-01-08T03:45:56.389Z,5.93
2019-01-08T03:50:57.954Z,4.87
2019-01-08T03:55:59.496Z,5.13
2019-01-08T04:01:01.117Z,6.03
2019-01-08T04:06:02.604Z,5.30
2019-01-08T04:11:04.288Z,5.50
2019-01-08T04:16:05.838Z,5.30
2019-01-08T04:21:07.411Z,6.87
2019-01-08T04:26:08.996Z,5.93
2019-01-08T04:31:10.542Z,5.13
2019-01-08T04:36:12.078Z,5.87
2019-01-08T04:41:13.583Z,5.50
2019-01-08T04:46:15.469Z,5.03
2019-01-08T04:51:17.396Z,5.33
2019-01-08T04:56:18.937Z,6.10
2019-01-08T05:01:20.816Z,5.63
2019-01-08T05:06:22.387Z,7.10
2019-01-08T05:11:23.940Z,5.73
2019-01-08T05:16:25.508Z,5.83
2019-01-08T05:21:27.410Z,5.30
2019-01-08T05:26:28.965Z,5.47
2019-01-08T05:31:30.995Z,5.27
2019-01-08T05:36:32.919Z,5.70
2019-01-08T05:41:34.561Z,5.57
2019-01-08T05:46:36.119Z,4.27
2019-01-08T05:51:37.757Z,4.57
2019-01-08T05:56:39.294Z,3.27
2019-01-08T06:01:41.271Z,2.50
2019-01-08T06:06:42.818Z,3.27
2019-01-08T06:11:44.330Z,4.33
2019-01-08T06:16:45.869Z,4.70
2019-01-08T06:21:47.828Z,2.83
2019-01-08T06:26:49.653Z,3.03
2019-01-08T06:31:51.399Z,2.30
2019-01-08T06:36:52.977Z,2.27
2019-01-08T06:41:54.510Z,3.47
2019-01-08T06:46:56.076Z,3.30
2019-01-08T06:51:57.702Z,2.60
2019-01-08T06:56:59.366Z,3.70
2019-01-08T07:02:00.909Z,3.60
2019-01-08T07:07:02.482Z,5.57
2019-01-08T07:12:04.009Z,5.77
2019-01-08T07:17:06.673Z,4.80
2019-01-08T07:22:08.209Z,4.17
2019-01-08T07:27:16.337Z,4.47
2019-01-08T07:32:13.390Z,5.33
2019-01-08T07:37:16.061Z,5.50
2019-01-08T07:42:17.928Z,5.50
2019-01-08T07:47:19.845Z,7.43
2019-01-08T07:52:21.392Z,4.43
2019-01-08T07:57:24.192Z,6.10
2019-01-08T08:02:25.766Z,6.58
2019-01-08T08:07:27.702Z,5.30
2019-01-08T08:12:29.276Z,5.43
2019-01-08T08:17:30.838Z,5.07
2019-01-08T08:22:32.906Z,5.60
2019-01-08T08:27:34.627Z,5.47
2019-01-08T08:32:37.531Z,5.30
2019-01-08T08:37:39.502Z,5.13
2019-01-08T08:42:41.031Z,6.13
2019-01-08T08:47:42.585Z,7.33
2019-01-08T08:52:44.524Z,6.30
2019-01-08T08:57:46.093Z,6.30
2019-01-08T09:02:47.638Z,8.17
2019-01-08T09:07:50.294Z,7.23
2019-01-08T09:12:51.826Z,6.37
2019-01-08T09:17:53.379Z,5.67
2019-01-08T09:22:54.950Z,6.80
2019-01-08T09:27:57.743Z,6.07
2019-01-08T09:32:59.315Z,6.37
2019-01-08T09:38:01.038Z,5.80
2019-01-08T09:43:02.633Z,6.60
2019-01-08T09:48:04.606Z,7.30
2019-01-08T09:53:06.505Z,7.13
2019-01-08T09:58:08.097Z,7.67
2019-01-08T10:03:09.642Z,6.90
2019-01-08T10:08:11.983Z,7.03
2019-01-08T10:13:13.542Z,7.77
2019-01-08T10:18:15.096Z,6.67
2019-01-08T10:23:16.616Z,6.87
2019-01-08T10:28:18.173Z,7.83
2019-01-08T10:33:19.705Z,7.90
2019-01-08T10:38:21.256Z,8.00
2019-01-08T10:43:22.874Z,7.33
2019-01-08T10:48:24.418Z,8.27
2019-01-08T10:53:31.218Z,6.57
2019-01-08T10:58:33.571Z,8.23
2019-01-08T11:03:38.210Z,7.33
2019-01-08T11:08:39.972Z,7.30
2019-01-08T11:13:41.631Z,8.03
2019-01-08T11:18:43.183Z,7.73
2019-01-08T11:23:45.193Z,7.47
2019-01-08T11:28:47.705Z,6.83
2019-01-08T11:33:49.409Z,5.10
2019-01-08T11:38:50.953Z,6.07
2019-01-08T11:43:53.506Z,5.47
2019-01-08T11:48:55.447Z,5.30
2019-01-08T11:53:57.012Z,6.40
2019-01-08T11:58:58.558Z,7.30
2019-01-08T12:04:00.103Z,6.20
2019-01-08T12:09:01.642Z,6.63
2019-01-08T12:14:03.160Z,7.17
2019-01-08T12:19:04.740Z,6.27
2019-01-08T12:24:06.283Z,5.90
2019-01-08T12:29:07.886Z,5.70
2019-01-08T12:34:09.412Z,6.83
2019-01-08T12:39:10.967Z,7.90
2019-01-08T12:44:12.503Z,7.80
2019-01-08T12:49:14.007Z,6.60
2019-01-08T12:54:15.979Z,7.60
2019-01-08T12:59:17.518Z,5.87
2019-01-08T13:04:20.496Z,6.63
2019-01-08T13:09:22.000Z,7.10
2019-01-08T13:14:23.552Z,5.90
2019-01-08T13:19:25.093Z,5.83
2019-01-08T13:24:27.046Z,6.37
2019-01-08T13:29:28.554Z,8.37
2019-01-08T13:34:30.135Z,6.43
2019-01-08T13:39:32.016Z,7.70
2019-01-08T13:44:33.539Z,7.20
2019-01-08T13:49:35.096Z,6.00
2019-01-08T13:54:36.606Z,6.70
2019-01-08T13:59:38.490Z,6.27
2019-01-08T14:04:40.186Z,6.17
2019-01-08T14:09:41.733Z,5.40
2019-01-08T14:14:43.366Z,7.57
2019-01-08T14:19:44.933Z,6.43
2019-01-08T14:24:46.530Z,6.67
2019-01-08T14:29:48.086Z,6.10
2019-01-08T14:34:49.645Z,5.63
2019-01-08T14:39:51.218Z,5.60
2019-01-08T14:44:53.059Z,6.37
2019-01-08T14:49:54.745Z,5.70
2019-01-08T14:54:56.318Z,5.30
2019-01-08T14:59:57.878Z,5.83
2019-01-08T15:04:59.403Z,4.63
2019-01-08T15:10:01.104Z,6.70
2019-01-08T15:15:03.094Z,5.70
2019-01-08T15:20:04.849Z,6.17
2019-01-08T15:25:06.476Z,6.67
2019-01-08T15:30:08.840Z,5.83
2019-01-08T15:35:10.388Z,7.03
2019-01-08T15:40:11.978Z,6.67
2019-01-08T15:45:13.503Z,5.70
2019-01-08T15:50:15.057Z,5.00
2019-01-08T15:55:16.560Z,5.70
2019-01-08T16:00:18.125Z,6.60
2019-01-08T16:05:19.628Z,6.50
2019-01-08T16:10:21.338Z,6.70
2019-01-08T16:15:22.880Z,5.57
2019-01-08T16:20:24.544Z,5.10
2019-01-08T16:25:26.114Z,4.90
2019-01-08T16:30:28.476Z,3.63
2019-01-08T16:35:30.051Z,4.37
2019-01-08T16:40:31.635Z,4.23
2019-01-08T16:45:33.377Z,4.83
2019-01-08T16:50:34.943Z,5.40
2019-01-08T16:55:36.488Z,5.97
2019-01-08T17:00:38.116Z,4.80
2019-01-08T17:05:39.681Z,5.47
2019-01-08T17:10:41.518Z,5.40
2019-01-08T17:15:43.175Z,5.40
2019-01-08T17:20:44.767Z,5.57
2019-01-08T17:25:48.064Z,5.13
2019-01-08T17:30:50.186Z,4.83
2019-01-08T17:35:51.785Z,7.57
2019-01-08T17:40:53.316Z,6.60
2019-01-08T17:45:54.864Z,6.17
2019-01-08T17:50:56.663Z,6.83
2019-01-08T17:55:58.181Z,6.23
2019-01-08T18:01:03.197Z,6.93
2019-01-08T18:06:04.741Z,6.80
2019-01-08T18:11:06.754Z,5.77
2019-01-08T18:16:08.330Z,5.77
2019-01-08T18:21:09.965Z,6.40
2019-01-08T18:26:11.551Z,6.10
2019-01-08T18:31:13.066Z,5.93
2019-01-08T18:36:14.615Z,5.77
2019-01-08T18:41:16.230Z,5.67
2019-01-08T18:46:17.813Z,6.67
2019-01-08T18:51:20.979Z,6.23
2019-01-08T18:56:22.577Z,7.30
2019-01-08T19:01:24.659Z,4.67
2019-01-08T19:06:26.234Z,4.50
2019-01-08T19:11:30.286Z,4.87
2019-01-08T19:16:32.804Z,4.13
2019-01-08T19:21:36.231Z,4.87
2019-01-08T19:26:39.751Z,5.20
2019-01-08T19:31:41.833Z,6.43
2019-01-08T19:36:43.470Z,6.73
2019-01-08T19:41:45.220Z,6.03
2019-01-08T19:46:46.889Z,6.03
2019-01-08T19:51:48.548Z,6.10
2019-01-08T19:56:53.088Z,5.47
2019-01-08T20:01:55.083Z,5.00
2019-01-08T20:06:57.220Z,5.63
2019-01-08T20:11:59.063Z,6.57
2019-01-08T20:17:00.739Z,4.87
2019-01-08T20:22:02.335Z,6.97
2019-01-08T20:27:04.404Z,6.47
2019-01-08T20:32:06.037Z,6.23
2019-01-08T20:37:07.593Z,7.93
2019-01-08T20:42:09.635Z,5.93
2019-01-08T20:47:11.361Z,6.17
2019-01-08T20:52:13.391Z,5.57
2019-01-08T20:57:14.956Z,6.03
2019-01-08T21:02:16.520Z,5.90
2019-01-08T21:07:18.495Z,6.20
2019-01-08T21:12:20.249Z,5.20
2019-01-08T21:17:22.062Z,7.10
2019-01-08T21:22:24.291Z,5.30
2019-01-08T21:27:26.129Z,5.27
2019-01-08T21:32:29.141Z,5.87
2019-01-08T21:37:30.713Z,5.33
2019-01-08T21:42:32.725Z,4.87
2019-01-08T21:47:34.320Z,5.77
2019-01-08T21:52:36.063Z,4.30
2019-01-08T21:57:37.672Z,4.23
2019-01-08T22:02:39.215Z,4.83
2019-01-08T22:07:41.256Z,6.03
2019-01-08T22:12:43.099Z,6.00
2019-01-08T22:17:45.203Z,6.90
2019-01-08T22:22:52.459Z,5.27
2019-01-08T22:27:50.180Z,4.97
2019-01-08T22:32:51.755Z,5.83
2019-01-08T22:37:53.293Z,4.10
2019-01-08T22:42:54.799Z,4.97
2019-01-08T22:47:56.454Z,4.70
2019-01-08T22:52:58.246Z,3.70
2019-01-08T22:58:01.968Z,4.47
2019-01-08T23:03:03.341Z,3.50
2019-01-08T23:08:04.855Z,4.23
2019-01-08T23:13:06.970Z,4.13
2019-01-08T23:18:08.485Z,4.00
2019-01-08T23:23:10.110Z,4.10
2019-01-08T23:28:11.655Z,5.10
2019-01-08T23:33:13.194Z,4.20
2019-01-08T23:38:14.737Z,4.43
2019-01-08T23:43:16.817Z,3.67
2019-01-08T23:48:18.442Z,5.63
2019-01-08T23:53:28.365Z,4.37
2019-01-08T23:58:29.899Z,4.30
